Hybart, Alabama
Current Conditions -  °F | °C
As of 12:53 AM on Saturday 25 Oct 2014 (Local Time) from KGZH Reporting Station
Clear Clear  
Wind Chill: 48°   Ceiling: Unl
Heat Index: 48°   Visibility: 10mi
Dew Point: 45°   Wind: 3mph
Humidity: 89%   Direction: 330°NNW
Pressure: 30.07"   Gusts: NA
Location:  31.7088°N, 87.4003°W
Report Text: KGZH 250553Z AUTO 33003KT 10SM CLR 09/07 A3007 RMK AO2 SLP180 T00890072 10156 20089 402610083 55001
Loading
Personal Weather Stations






























Interactive Weather Map
Tropical Storm Tracking
New forecast layout! Learn more

10-Day Weather Forecast

Advertisements
Track Severe Weather on mobile